Terminal Aerodrome Forecast
Issued by NWS St Louis, MO

Home | Current Version | Previous Version | Text Only | Print | Product List | Glossary On
Versions: 1 2 3 4 5 6 7 8 9 10 11 12 13 14 15
956
FTUS43 KLSX 211807 CCA
TAFCOU
TAF COR
KCOU 211807Z 2118/2218 19016G24KT P6SM FEW060
     FM220400 19010KT 5SM SHRA VCTS OVC035CB
     FM221000 27006KT P6SM SHRA VCTS OVC020CB
     FM221200 31007KT P6SM -SHRA OVC020
     FM221600 33007KT P6SM -SHRA BKN035=

USA.gov is the U.S. government's official web portal to all federal, state and local government web resources and services.